sensor_id;sensor_type;location;lat;lon;timestamp;P1;durP1;ratioP1;P2;durP2;ratioP2
17494;SDS011;8864;51.970;4.614;2023-03-19T00:02:04;2.30;;;0.88;;
17494;SDS011;8864;51.970;4.614;2023-03-19T00:04:32;1.13;;;0.70;;
17494;SDS011;8864;51.970;4.614;2023-03-19T00:06:59;2.78;;;0.70;;
17494;SDS011;8864;51.970;4.614;2023-03-19T00:09:26;0.88;;;0.60;;
17494;SDS011;8864;51.970;4.614;2023-03-19T00:11:53;1.42;;;0.82;;
17494;SDS011;8864;51.970;4.614;2023-03-19T00:14:21;3.08;;;1.00;;
17494;SDS011;8864;51.970;4.614;2023-03-19T00:16:49;1.17;;;0.70;;
17494;SDS011;8864;51.970;4.614;2023-03-19T00:19:16;0.63;;;0.60;;
17494;SDS011;8864;51.970;4.614;2023-03-19T00:21:43;0.70;;;0.60;;
17494;SDS011;8864;51.970;4.614;2023-03-19T00:24:09;0.98;;;0.77;;
17494;SDS011;8864;51.970;4.614;2023-03-19T00:26:36;0.88;;;0.65;;
17494;SDS011;8864;51.970;4.614;2023-03-19T00:29:03;1.42;;;0.80;;
17494;SDS011;8864;51.970;4.614;2023-03-19T00:31:30;1.35;;;0.80;;
17494;SDS011;8864;51.970;4.614;2023-03-19T00:34:00;1.10;;;0.77;;
17494;SDS011;8864;51.970;4.614;2023-03-19T00:36:28;3.70;;;0.70;;
17494;SDS011;8864;51.970;4.614;2023-03-19T00:38:55;1.48;;;0.80;;
17494;SDS011;8864;51.970;4.614;2023-03-19T00:41:22;1.60;;;0.68;;
17494;SDS011;8864;51.970;4.614;2023-03-19T00:43:53;2.28;;;0.80;;
17494;SDS011;8864;51.970;4.614;2023-03-19T00:46:21;0.68;;;0.68;;
17494;SDS011;8864;51.970;4.614;2023-03-19T00:48:49;0.65;;;0.63;;
17494;SDS011;8864;51.970;4.614;2023-03-19T00:51:21;0.93;;;0.63;;
17494;SDS011;8864;51.970;4.614;2023-03-19T00:53:48;1.35;;;0.80;;
17494;SDS011;8864;51.970;4.614;2023-03-19T00:56:16;1.55;;;0.63;;
17494;SDS011;8864;51.970;4.614;2023-03-19T00:58:44;1.42;;;0.80;;
17494;SDS011;8864;51.970;4.614;2023-03-19T01:01:13;1.40;;;0.70;;
17494;SDS011;8864;51.970;4.614;2023-03-19T01:03:42;2.15;;;0.70;;
17494;SDS011;8864;51.970;4.614;2023-03-19T01:06:09;2.40;;;0.90;;
17494;SDS011;8864;51.970;4.614;2023-03-19T01:08:37;1.50;;;0.90;;
17494;SDS011;8864;51.970;4.614;2023-03-19T01:11:06;1.40;;;0.70;;
17494;SDS011;8864;51.970;4.614;2023-03-19T01:13:33;1.17;;;0.77;;
17494;SDS011;8864;51.970;4.614;2023-03-19T01:16:01;3.13;;;0.73;;
17494;SDS011;8864;51.970;4.614;2023-03-19T01:18:28;1.92;;;0.80;;
17494;SDS011;8864;51.970;4.614;2023-03-19T01:20:55;1.00;;;0.60;;
17494;SDS011;8864;51.970;4.614;2023-03-19T01:23:22;1.50;;;0.70;;
17494;SDS011;8864;51.970;4.614;2023-03-19T01:25:50;1.17;;;0.82;;
17494;SDS011;8864;51.970;4.614;2023-03-19T01:28:17;1.85;;;1.00;;
17494;SDS011;8864;51.970;4.614;2023-03-19T01:30:46;1.00;;;0.70;;
17494;SDS011;8864;51.970;4.614;2023-03-19T01:33:13;1.00;;;0.80;;
17494;SDS011;8864;51.970;4.614;2023-03-19T01:35:40;1.67;;;0.80;;
17494;SDS011;8864;51.970;4.614;2023-03-19T01:38:08;1.33;;;0.70;;
17494;SDS011;8864;51.970;4.614;2023-03-19T01:40:35;1.27;;;0.70;;
17494;SDS011;8864;51.970;4.614;2023-03-19T01:43:13;1.20;;;0.80;;
17494;SDS011;8864;51.970;4.614;2023-03-19T01:45:43;2.58;;;0.75;;
17494;SDS011;8864;51.970;4.614;2023-03-19T01:48:16;1.40;;;0.80;;
17494;SDS011;8864;51.970;4.614;2023-03-19T01:50:49;1.90;;;0.77;;
17494;SDS011;8864;51.970;4.614;2023-03-19T01:53:19;2.00;;;0.77;;
17494;SDS011;8864;51.970;4.614;2023-03-19T01:55:49;1.63;;;0.90;;
17494;SDS011;8864;51.970;4.614;2023-03-19T01:58:21;1.58;;;0.70;;
17494;SDS011;8864;51.970;4.614;2023-03-19T02:00:48;2.88;;;0.70;;
17494;SDS011;8864;51.970;4.614;2023-03-19T02:03:15;1.70;;;0.88;;
17494;SDS011;8864;51.970;4.614;2023-03-19T02:05:43;1.10;;;0.60;;
17494;SDS011;8864;51.970;4.614;2023-03-19T02:08:15;1.75;;;0.60;;
17494;SDS011;8864;51.970;4.614;2023-03-19T02:10:45;1.70;;;0.63;;
17494;SDS011;8864;51.970;4.614;2023-03-19T02:13:13;0.73;;;0.60;;
17494;SDS011;8864;51.970;4.614;2023-03-19T02:15:41;0.77;;;0.60;;
17494;SDS011;8864;51.970;4.614;2023-03-19T02:18:08;2.47;;;0.95;;
17494;SDS011;8864;51.970;4.614;2023-03-19T02:20:36;1.23;;;0.82;;
17494;SDS011;8864;51.970;4.614;2023-03-19T02:23:13;1.15;;;0.80;;
17494;SDS011;8864;51.970;4.614;2023-03-19T02:25:55;1.40;;;0.80;;
17494;SDS011;8864;51.970;4.614;2023-03-19T02:28:32;4.45;;;0.80;;
17494;SDS011;8864;51.970;4.614;2023-03-19T02:31:01;0.93;;;0.60;;
17494;SDS011;8864;51.970;4.614;2023-03-19T02:33:28;0.90;;;0.80;;
17494;SDS011;8864;51.970;4.614;2023-03-19T02:35:56;1.35;;;0.68;;
17494;SDS011;8864;51.970;4.614;2023-03-19T02:38:25;1.40;;;0.73;;
17494;SDS011;8864;51.970;4.614;2023-03-19T02:40:56;1.02;;;0.70;;
17494;SDS011;8864;51.970;4.614;2023-03-19T02:43:25;1.02;;;0.60;;
17494;SDS011;8864;51.970;4.614;2023-03-19T02:45:53;1.08;;;0.80;;
17494;SDS011;8864;51.970;4.614;2023-03-19T02:48:21;1.48;;;0.82;;
17494;SDS011;8864;51.970;4.614;2023-03-19T02:50:48;3.00;;;0.73;;
17494;SDS011;8864;51.970;4.614;2023-03-19T02:53:15;2.08;;;0.80;;
17494;SDS011;8864;51.970;4.614;2023-03-19T02:55:42;0.80;;;0.70;;
17494;SDS011;8864;51.970;4.614;2023-03-19T02:58:11;2.58;;;0.70;;
17494;SDS011;8864;51.970;4.614;2023-03-19T03:00:38;0.90;;;0.60;;
17494;SDS011;8864;51.970;4.614;2023-03-19T03:03:05;0.90;;;0.60;;
17494;SDS011;8864;51.970;4.614;2023-03-19T03:05:33;2.33;;;0.77;;
17494;SDS011;8864;51.970;4.614;2023-03-19T03:08:00;1.00;;;0.73;;
17494;SDS011;8864;51.970;4.614;2023-03-19T03:10:28;1.27;;;0.82;;
17494;SDS011;8864;51.970;4.614;2023-03-19T03:12:55;1.08;;;0.85;;
17494;SDS011;8864;51.970;4.614;2023-03-19T03:15:23;0.73;;;0.60;;
17494;SDS011;8864;51.970;4.614;2023-03-19T03:17:50;0.80;;;0.80;;
17494;SDS011;8864;51.970;4.614;2023-03-19T03:20:17;2.30;;;0.90;;
17494;SDS011;8864;51.970;4.614;2023-03-19T03:22:44;1.42;;;0.77;;
17494;SDS011;8864;51.970;4.614;2023-03-19T03:25:12;1.92;;;0.70;;
17494;SDS011;8864;51.970;4.614;2023-03-19T03:27:39;0.52;;;0.50;;
17494;SDS011;8864;51.970;4.614;2023-03-19T03:30:07;1.05;;;0.85;;
17494;SDS011;8864;51.970;4.614;2023-03-19T03:32:38;0.63;;;0.63;;
17494;SDS011;8864;51.970;4.614;2023-03-19T03:35:05;1.58;;;0.60;;
17494;SDS011;8864;51.970;4.614;2023-03-19T03:37:33;0.80;;;0.60;;
17494;SDS011;8864;51.970;4.614;2023-03-19T03:40:00;0.93;;;0.70;;
17494;SDS011;8864;51.970;4.614;2023-03-19T03:42:30;1.10;;;0.70;;
17494;SDS011;8864;51.970;4.614;2023-03-19T03:44:57;0.60;;;0.60;;
17494;SDS011;8864;51.970;4.614;2023-03-19T03:47:26;0.98;;;0.63;;
17494;SDS011;8864;51.970;4.614;2023-03-19T03:49:54;1.02;;;0.85;;
17494;SDS011;8864;51.970;4.614;2023-03-19T03:52:21;0.70;;;0.60;;
17494;SDS011;8864;51.970;4.614;2023-03-19T03:54:47;1.50;;;0.60;;
17494;SDS011;8864;51.970;4.614;2023-03-19T03:57:16;1.33;;;0.80;;
17494;SDS011;8864;51.970;4.614;2023-03-19T03:59:43;0.90;;;0.80;;
17494;SDS011;8864;51.970;4.614;2023-03-19T04:02:10;1.95;;;0.65;;
17494;SDS011;8864;51.970;4.614;2023-03-19T04:04:37;0.60;;;0.60;;
17494;SDS011;8864;51.970;4.614;2023-03-19T04:07:06;1.73;;;0.90;;
17494;SDS011;8864;51.970;4.614;2023-03-19T04:09:33;0.80;;;0.70;;
17494;SDS011;8864;51.970;4.614;2023-03-19T04:12:00;1.00;;;0.90;;
17494;SDS011;8864;51.970;4.614;2023-03-19T04:14:27;0.80;;;0.80;;
17494;SDS011;8864;51.970;4.614;2023-03-19T04:16:54;1.83;;;0.70;;
17494;SDS011;8864;51.970;4.614;2023-03-19T04:19:21;1.00;;;0.88;;
17494;SDS011;8864;51.970;4.614;2023-03-19T04:21:48;2.42;;;0.90;;
17494;SDS011;8864;51.970;4.614;2023-03-19T04:24:16;1.50;;;0.90;;
17494;SDS011;8864;51.970;4.614;2023-03-19T04:26:43;1.88;;;1.02;;
17494;SDS011;8864;51.970;4.614;2023-03-19T04:29:12;1.38;;;0.90;;
17494;SDS011;8864;51.970;4.614;2023-03-19T04:31:39;3.20;;;1.20;;
17494;SDS011;8864;51.970;4.614;2023-03-19T04:34:06;1.60;;;1.10;;
17494;SDS011;8864;51.970;4.614;2023-03-19T04:36:33;1.27;;;0.98;;
17494;SDS011;8864;51.970;4.614;2023-03-19T04:39:00;1.23;;;1.13;;
17494;SDS011;8864;51.970;4.614;2023-03-19T04:41:28;1.25;;;1.10;;
17494;SDS011;8864;51.970;4.614;2023-03-19T04:43:55;1.60;;;1.02;;
17494;SDS011;8864;51.970;4.614;2023-03-19T04:46:22;2.10;;;1.05;;
17494;SDS011;8864;51.970;4.614;2023-03-19T04:48:49;1.33;;;1.17;;
17494;SDS011;8864;51.970;4.614;2023-03-19T04:51:16;1.35;;;1.13;;
17494;SDS011;8864;51.970;4.614;2023-03-19T04:53:45;2.00;;;1.30;;
17494;SDS011;8864;51.970;4.614;2023-03-19T04:56:13;2.85;;;1.20;;
17494;SDS011;8864;51.970;4.614;2023-03-19T04:58:44;1.70;;;1.40;;
17494;SDS011;8864;51.970;4.614;2023-03-19T05:01:11;3.65;;;1.27;;
17494;SDS011;8864;51.970;4.614;2023-03-19T05:03:38;2.10;;;1.30;;
17494;SDS011;8864;51.970;4.614;2023-03-19T05:06:05;2.42;;;1.33;;
17494;SDS011;8864;51.970;4.614;2023-03-19T05:08:32;1.33;;;1.20;;
17494;SDS011;8864;51.970;4.614;2023-03-19T05:10:59;2.25;;;1.23;;
17494;SDS011;8864;51.970;4.614;2023-03-19T05:13:26;1.40;;;1.10;;
17494;SDS011;8864;51.970;4.614;2023-03-19T05:15:55;1.90;;;1.27;;
17494;SDS011;8864;51.970;4.614;2023-03-19T05:18:22;1.80;;;1.50;;
17494;SDS011;8864;51.970;4.614;2023-03-19T05:20:50;1.50;;;1.20;;
17494;SDS011;8864;51.970;4.614;2023-03-19T05:23:17;1.92;;;1.33;;
17494;SDS011;8864;51.970;4.614;2023-03-19T05:25:44;1.70;;;1.40;;
17494;SDS011;8864;51.970;4.614;2023-03-19T05:28:11;1.85;;;1.40;;
17494;SDS011;8864;51.970;4.614;2023-03-19T05:30:41;3.05;;;1.27;;
17494;SDS011;8864;51.970;4.614;2023-03-19T05:33:09;1.85;;;1.30;;
17494;SDS011;8864;51.970;4.614;2023-03-19T05:35:36;1.83;;;1.40;;
17494;SDS011;8864;51.970;4.614;2023-03-19T05:38:04;2.17;;;1.70;;
17494;SDS011;8864;51.970;4.614;2023-03-19T05:40:32;1.58;;;1.20;;
17494;SDS011;8864;51.970;4.614;2023-03-19T05:43:00;2.53;;;1.73;;
17494;SDS011;8864;51.970;4.614;2023-03-19T05:45:27;1.73;;;1.50;;
17494;SDS011;8864;51.970;4.614;2023-03-19T05:47:54;1.60;;;1.30;;
17494;SDS011;8864;51.970;4.614;2023-03-19T05:50:22;1.35;;;1.15;;
17494;SDS011;8864;51.970;4.614;2023-03-19T05:52:49;2.08;;;1.42;;
17494;SDS011;8864;51.970;4.614;2023-03-19T05:55:16;4.03;;;1.60;;
17494;SDS011;8864;51.970;4.614;2023-03-19T05:57:43;2.58;;;1.65;;
17494;SDS011;8864;51.970;4.614;2023-03-19T06:00:11;4.72;;;1.42;;
17494;SDS011;8864;51.970;4.614;2023-03-19T06:02:38;3.15;;;1.60;;
17494;SDS011;8864;51.970;4.614;2023-03-19T06:05:06;2.33;;;1.65;;
17494;SDS011;8864;51.970;4.614;2023-03-19T06:07:35;2.78;;;1.80;;
17494;SDS011;8864;51.970;4.614;2023-03-19T06:10:02;2.97;;;2.17;;
17494;SDS011;8864;51.970;4.614;2023-03-19T06:12:30;2.85;;;2.22;;
17494;SDS011;8864;51.970;4.614;2023-03-19T06:14:57;2.90;;;1.98;;
17494;SDS011;8864;51.970;4.614;2023-03-19T06:17:24;3.00;;;2.38;;
17494;SDS011;8864;51.970;4.614;2023-03-19T06:19:51;3.90;;;2.67;;
17494;SDS011;8864;51.970;4.614;2023-03-19T06:22:19;3.78;;;2.70;;
17494;SDS011;8864;51.970;4.614;2023-03-19T06:24:47;3.67;;;2.55;;
17494;SDS011;8864;51.970;4.614;2023-03-19T06:27:14;3.83;;;2.80;;
17494;SDS011;8864;51.970;4.614;2023-03-19T06:29:41;3.38;;;2.60;;
17494;SDS011;8864;51.970;4.614;2023-03-19T06:32:08;6.13;;;3.65;;
17494;SDS011;8864;51.970;4.614;2023-03-19T06:34:35;7.88;;;3.50;;
17494;SDS011;8864;51.970;4.614;2023-03-19T06:37:02;6.10;;;3.50;;
17494;SDS011;8864;51.970;4.614;2023-03-19T06:39:29;5.75;;;3.47;;
17494;SDS011;8864;51.970;4.614;2023-03-19T06:41:58;6.10;;;4.20;;
17494;SDS011;8864;51.970;4.614;2023-03-19T06:44:25;7.43;;;3.80;;
17494;SDS011;8864;51.970;4.614;2023-03-19T06:46:52;8.68;;;4.43;;
17494;SDS011;8864;51.970;4.614;2023-03-19T06:49:19;8.73;;;4.13;;
17494;SDS011;8864;51.970;4.614;2023-03-19T06:51:47;7.75;;;4.68;;
17494;SDS011;8864;51.970;4.614;2023-03-19T06:54:14;8.20;;;4.15;;
17494;SDS011;8864;51.970;4.614;2023-03-19T06:56:41;11.30;;;4.40;;
17494;SDS011;8864;51.970;4.614;2023-03-19T06:59:09;8.80;;;4.60;;
17494;SDS011;8864;51.970;4.614;2023-03-19T07:01:37;10.93;;;4.07;;
17494;SDS011;8864;51.970;4.614;2023-03-19T07:04:04;8.23;;;4.07;;
17494;SDS011;8864;51.970;4.614;2023-03-19T07:06:31;7.00;;;3.63;;
17494;SDS011;8864;51.970;4.614;2023-03-19T07:08:58;7.43;;;4.15;;
17494;SDS011;8864;51.970;4.614;2023-03-19T07:11:25;7.22;;;4.13;;
17494;SDS011;8864;51.970;4.614;2023-03-19T07:13:53;8.10;;;4.90;;
17494;SDS011;8864;51.970;4.614;2023-03-19T07:16:21;8.75;;;5.22;;
17494;SDS011;8864;51.970;4.614;2023-03-19T07:18:48;7.63;;;5.07;;
17494;SDS011;8864;51.970;4.614;2023-03-19T07:21:15;9.75;;;5.25;;
17494;SDS011;8864;51.970;4.614;2023-03-19T07:23:42;10.10;;;5.53;;
17494;SDS011;8864;51.970;4.614;2023-03-19T07:26:10;10.05;;;5.57;;
17494;SDS011;8864;51.970;4.614;2023-03-19T07:28:37;10.45;;;5.68;;
17494;SDS011;8864;51.970;4.614;2023-03-19T07:31:04;11.25;;;6.30;;
17494;SDS011;8864;51.970;4.614;2023-03-19T07:33:33;10.82;;;6.20;;
17494;SDS011;8864;51.970;4.614;2023-03-19T07:36:00;12.93;;;7.05;;
17494;SDS011;8864;51.970;4.614;2023-03-19T07:38:27;13.18;;;7.35;;
17494;SDS011;8864;51.970;4.614;2023-03-19T07:40:54;11.45;;;6.75;;
17494;SDS011;8864;51.970;4.614;2023-03-19T07:43:22;11.82;;;6.97;;
17494;SDS011;8864;51.970;4.614;2023-03-19T07:45:49;14.23;;;7.10;;
17494;SDS011;8864;51.970;4.614;2023-03-19T07:48:16;12.48;;;6.65;;
17494;SDS011;8864;51.970;4.614;2023-03-19T07:50:45;14.43;;;7.03;;
17494;SDS011;8864;51.970;4.614;2023-03-19T07:53:12;13.02;;;6.93;;
17494;SDS011;8864;51.970;4.614;2023-03-19T07:55:39;13.90;;;7.97;;
17494;SDS011;8864;51.970;4.614;2023-03-19T07:58:06;15.25;;;8.27;;
17494;SDS011;8864;51.970;4.614;2023-03-19T08:00:32;14.27;;;7.75;;
17494;SDS011;8864;51.970;4.614;2023-03-19T08:03:00;13.50;;;8.00;;
17494;SDS011;8864;51.970;4.614;2023-03-19T08:05:27;16.55;;;7.80;;
17494;SDS011;8864;51.970;4.614;2023-03-19T08:07:55;15.52;;;8.57;;
17494;SDS011;8864;51.970;4.614;2023-03-19T08:10:22;14.65;;;8.27;;
17494;SDS011;8864;51.970;4.614;2023-03-19T08:12:49;14.73;;;8.07;;
17494;SDS011;8864;51.970;4.614;2023-03-19T08:15:16;15.88;;;9.00;;
17494;SDS011;8864;51.970;4.614;2023-03-19T08:17:43;19.27;;;8.95;;
17494;SDS011;8864;51.970;4.614;2023-03-19T08:20:11;16.25;;;8.45;;
17494;SDS011;8864;51.970;4.614;2023-03-19T08:22:40;16.90;;;8.73;;
17494;SDS011;8864;51.970;4.614;2023-03-19T08:25:10;17.55;;;9.13;;
17494;SDS011;8864;51.970;4.614;2023-03-19T08:27:37;17.50;;;9.25;;
17494;SDS011;8864;51.970;4.614;2023-03-19T08:30:05;15.25;;;8.65;;
17494;SDS011;8864;51.970;4.614;2023-03-19T08:32:33;16.92;;;9.25;;
17494;SDS011;8864;51.970;4.614;2023-03-19T08:35:03;18.58;;;9.13;;
17494;SDS011;8864;51.970;4.614;2023-03-19T08:37:32;17.60;;;9.23;;
17494;SDS011;8864;51.970;4.614;2023-03-19T08:39:59;19.67;;;9.82;;
17494;SDS011;8864;51.970;4.614;2023-03-19T08:42:27;18.30;;;9.55;;
17494;SDS011;8864;51.970;4.614;2023-03-19T08:44:54;21.48;;;9.60;;
17494;SDS011;8864;51.970;4.614;2023-03-19T08:47:21;18.88;;;10.00;;
17494;SDS011;8864;51.970;4.614;2023-03-19T08:49:48;21.55;;;9.60;;
17494;SDS011;8864;51.970;4.614;2023-03-19T08:52:15;19.38;;;9.38;;
17494;SDS011;8864;51.970;4.614;2023-03-19T08:54:43;20.65;;;10.10;;
17494;SDS011;8864;51.970;4.614;2023-03-19T08:57:10;18.25;;;9.38;;
17494;SDS011;8864;51.970;4.614;2023-03-19T08:59:38;20.27;;;10.10;;
17494;SDS011;8864;51.970;4.614;2023-03-19T09:02:05;17.27;;;8.68;;
17494;SDS011;8864;51.970;4.614;2023-03-19T09:04:32;20.23;;;9.57;;
17494;SDS011;8864;51.970;4.614;2023-03-19T09:07:03;19.80;;;9.23;;
17494;SDS011;8864;51.970;4.614;2023-03-19T09:09:30;18.60;;;9.27;;
17494;SDS011;8864;51.970;4.614;2023-03-19T09:11:57;18.15;;;9.48;;
17494;SDS011;8864;51.970;4.614;2023-03-19T09:14:24;18.05;;;9.10;;
17494;SDS011;8864;51.970;4.614;2023-03-19T09:16:52;15.50;;;8.05;;
17494;SDS011;8864;51.970;4.614;2023-03-19T09:19:19;18.13;;;8.85;;
17494;SDS011;8864;51.970;4.614;2023-03-19T09:21:48;18.80;;;9.48;;
17494;SDS011;8864;51.970;4.614;2023-03-19T09:24:14;16.73;;;8.52;;
17494;SDS011;8864;51.970;4.614;2023-03-19T09:26:42;21.48;;;9.40;;
17494;SDS011;8864;51.970;4.614;2023-03-19T09:29:10;17.20;;;8.85;;
17494;SDS011;8864;51.970;4.614;2023-03-19T09:31:38;19.95;;;9.50;;
17494;SDS011;8864;51.970;4.614;2023-03-19T09:34:06;18.95;;;9.15;;
17494;SDS011;8864;51.970;4.614;2023-03-19T09:36:33;18.00;;;8.60;;
17494;SDS011;8864;51.970;4.614;2023-03-19T09:39:00;17.48;;;8.48;;
17494;SDS011;8864;51.970;4.614;2023-03-19T09:41:31;19.73;;;8.98;;
17494;SDS011;8864;51.970;4.614;2023-03-19T09:44:08;18.35;;;8.40;;
17494;SDS011;8864;51.970;4.614;2023-03-19T09:46:39;36.00;;;11.35;;
17494;SDS011;8864;51.970;4.614;2023-03-19T09:49:13;21.15;;;9.07;;
17494;SDS011;8864;51.970;4.614;2023-03-19T09:51:47;22.00;;;9.93;;
17494;SDS011;8864;51.970;4.614;2023-03-19T09:57:06;18.88;;;9.55;;
17494;SDS011;8864;51.970;4.614;2023-03-19T09:59:34;27.20;;;9.02;;
17494;SDS011;8864;51.970;4.614;2023-03-19T10:02:23;23.13;;;9.52;;
17494;SDS011;8864;51.970;4.614;2023-03-19T10:05:02;31.05;;;10.05;;
17494;SDS011;8864;51.970;4.614;2023-03-19T10:07:39;27.58;;;10.25;;
17494;SDS011;8864;51.970;4.614;2023-03-19T10:10:20;32.15;;;10.68;;
17494;SDS011;8864;51.970;4.614;2023-03-19T10:13:05;29.13;;;10.90;;
17494;SDS011;8864;51.970;4.614;2023-03-19T10:15:37;29.00;;;10.88;;
17494;SDS011;8864;51.970;4.614;2023-03-19T10:18:06;35.35;;;11.25;;
17494;SDS011;8864;51.970;4.614;2023-03-19T10:20:46;25.70;;;10.88;;
17494;SDS011;8864;51.970;4.614;2023-03-19T10:23:27;33.03;;;11.43;;
17494;SDS011;8864;51.970;4.614;2023-03-19T10:26:03;26.02;;;9.57;;
17494;SDS011;8864;51.970;4.614;2023-03-19T10:28:35;27.60;;;11.27;;
17494;SDS011;8864;51.970;4.614;2023-03-19T10:31:06;28.88;;;11.05;;
17494;SDS011;8864;51.970;4.614;2023-03-19T10:33:55;23.20;;;10.93;;
17494;SDS011;8864;51.970;4.614;2023-03-19T10:36:33;28.75;;;11.30;;
17494;SDS011;8864;51.970;4.614;2023-03-19T10:39:01;28.10;;;10.93;;
17494;SDS011;8864;51.970;4.614;2023-03-19T10:41:34;23.98;;;10.23;;
17494;SDS011;8864;51.970;4.614;2023-03-19T10:44:11;23.90;;;10.52;;
17494;SDS011;8864;51.970;4.614;2023-03-19T10:46:46;26.95;;;10.93;;
17494;SDS011;8864;51.970;4.614;2023-03-19T10:49:13;24.77;;;10.85;;
17494;SDS011;8864;51.970;4.614;2023-03-19T10:51:43;26.15;;;10.50;;
17494;SDS011;8864;51.970;4.614;2023-03-19T10:54:16;21.73;;;10.10;;
17494;SDS011;8864;51.970;4.614;2023-03-19T10:56:47;20.67;;;9.82;;
17494;SDS011;8864;51.970;4.614;2023-03-19T10:59:22;23.38;;;10.35;;
17494;SDS011;8864;51.970;4.614;2023-03-19T11:01:54;25.20;;;10.43;;
17494;SDS011;8864;51.970;4.614;2023-03-19T11:04:23;26.52;;;10.52;;
17494;SDS011;8864;51.970;4.614;2023-03-19T11:06:54;26.92;;;10.55;;
17494;SDS011;8864;51.970;4.614;2023-03-19T11:09:28;19.50;;;9.82;;
17494;SDS011;8864;51.970;4.614;2023-03-19T11:12:04;26.33;;;9.65;;
17494;SDS011;8864;51.970;4.614;2023-03-19T11:14:33;25.25;;;11.13;;
17494;SDS011;8864;51.970;4.614;2023-03-19T11:17:03;22.05;;;10.02;;
17494;SDS011;8864;51.970;4.614;2023-03-19T11:19:32;22.08;;;10.43;;
17494;SDS011;8864;51.970;4.614;2023-03-19T11:22:09;23.13;;;10.45;;
17494;SDS011;8864;51.970;4.614;2023-03-19T11:24:47;21.05;;;9.65;;
17494;SDS011;8864;51.970;4.614;2023-03-19T11:27:15;22.83;;;9.23;;
17494;SDS011;8864;51.970;4.614;2023-03-19T11:29:42;19.02;;;9.25;;
17494;SDS011;8864;51.970;4.614;2023-03-19T11:32:13;18.85;;;9.07;;
17494;SDS011;8864;51.970;4.614;2023-03-19T11:34:51;22.40;;;9.40;;
17494;SDS011;8864;51.970;4.614;2023-03-19T11:37:26;21.65;;;9.70;;
17494;SDS011;8864;51.970;4.614;2023-03-19T11:40:00;19.38;;;8.95;;
17494;SDS011;8864;51.970;4.614;2023-03-19T11:42:43;19.38;;;9.02;;
17494;SDS011;8864;51.970;4.614;2023-03-19T11:45:24;21.85;;;9.13;;
17494;SDS011;8864;51.970;4.614;2023-03-19T11:48:02;19.45;;;9.30;;
17494;SDS011;8864;51.970;4.614;2023-03-19T11:50:39;22.45;;;9.40;;
17494;SDS011;8864;51.970;4.614;2023-03-19T11:53:18;22.67;;;9.65;;
17494;SDS011;8864;51.970;4.614;2023-03-19T11:55:53;18.77;;;8.77;;
17494;SDS011;8864;51.970;4.614;2023-03-19T12:01:46;18.27;;;9.55;;
17494;SDS011;8864;51.970;4.614;2023-03-19T12:04:52;17.33;;;8.30;;
17494;SDS011;8864;51.970;4.614;2023-03-19T12:07:29;17.02;;;8.27;;
17494;SDS011;8864;51.970;4.614;2023-03-19T12:10:06;17.15;;;8.07;;
17494;SDS011;8864;51.970;4.614;2023-03-19T12:12:52;15.90;;;8.45;;
17494;SDS011;8864;51.970;4.614;2023-03-19T12:15:26;21.88;;;8.65;;
17494;SDS011;8864;51.970;4.614;2023-03-19T12:17:57;17.63;;;7.82;;
17494;SDS011;8864;51.970;4.614;2023-03-19T12:20:34;19.67;;;8.20;;
17494;SDS011;8864;51.970;4.614;2023-03-19T12:23:11;21.45;;;8.43;;
17494;SDS011;8864;51.970;4.614;2023-03-19T12:25:49;18.58;;;8.18;;
17494;SDS011;8864;51.970;4.614;2023-03-19T12:28:28;19.20;;;8.80;;
17494;SDS011;8864;51.970;4.614;2023-03-19T12:31:11;18.98;;;8.23;;
17494;SDS011;8864;51.970;4.614;2023-03-19T12:34:16;20.83;;;8.38;;
17494;SDS011;8864;51.970;4.614;2023-03-19T12:36:51;19.05;;;8.18;;
17494;SDS011;8864;51.970;4.614;2023-03-19T12:39:23;27.58;;;9.18;;
17494;SDS011;8864;51.970;4.614;2023-03-19T12:41:57;19.67;;;7.72;;
17494;SDS011;8864;51.970;4.614;2023-03-19T12:44:27;14.43;;;7.35;;
17494;SDS011;8864;51.970;4.614;2023-03-19T12:47:00;21.73;;;7.78;;
17494;SDS011;8864;51.970;4.614;2023-03-19T12:49:30;19.92;;;7.32;;
17494;SDS011;8864;51.970;4.614;2023-03-19T12:52:02;16.02;;;6.72;;
17494;SDS011;8864;51.970;4.614;2023-03-19T12:54:38;19.95;;;6.00;;
17494;SDS011;8864;51.970;4.614;2023-03-19T12:57:09;13.98;;;6.30;;
17494;SDS011;8864;51.970;4.614;2023-03-19T12:59:43;14.65;;;6.00;;
17494;SDS011;8864;51.970;4.614;2023-03-19T13:02:20;17.13;;;6.32;;
17494;SDS011;8864;51.970;4.614;2023-03-19T13:04:54;14.30;;;5.70;;
17494;SDS011;8864;51.970;4.614;2023-03-19T13:07:27;13.15;;;6.22;;
17494;SDS011;8864;51.970;4.614;2023-03-19T13:09:59;13.75;;;5.82;;
17494;SDS011;8864;51.970;4.614;2023-03-19T13:12:33;11.73;;;5.38;;
17494;SDS011;8864;51.970;4.614;2023-03-19T13:15:04;13.32;;;5.40;;
17494;SDS011;8864;51.970;4.614;2023-03-19T13:17:36;12.07;;;5.00;;
17494;SDS011;8864;51.970;4.614;2023-03-19T13:20:14;10.88;;;4.70;;
17494;SDS011;8864;51.970;4.614;2023-03-19T13:22:46;15.20;;;4.72;;
17494;SDS011;8864;51.970;4.614;2023-03-19T13:25:17;8.73;;;4.35;;
17494;SDS011;8864;51.970;4.614;2023-03-19T13:27:52;7.97;;;4.30;;
17494;SDS011;8864;51.970;4.614;2023-03-19T13:30:20;10.35;;;4.40;;
17494;SDS011;8864;51.970;4.614;2023-03-19T13:32:49;10.82;;;4.47;;
17494;SDS011;8864;51.970;4.614;2023-03-19T13:35:32;8.70;;;4.35;;
17494;SDS011;8864;51.970;4.614;2023-03-19T13:38:03;9.82;;;4.18;;
17494;SDS011;8864;51.970;4.614;2023-03-19T13:40:43;10.20;;;4.18;;
17494;SDS011;8864;51.970;4.614;2023-03-19T13:46:29;7.82;;;4.30;;
17494;SDS011;8864;51.970;4.614;2023-03-19T13:49:21;6.85;;;4.05;;
17494;SDS011;8864;51.970;4.614;2023-03-19T13:58:20;9.05;;;3.83;;
17494;SDS011;8864;51.970;4.614;2023-03-19T14:01:05;8.48;;;3.85;;
17494;SDS011;8864;51.970;4.614;2023-03-19T14:03:34;10.90;;;3.83;;
17494;SDS011;8864;51.970;4.614;2023-03-19T14:06:09;7.85;;;3.80;;
17494;SDS011;8864;51.970;4.614;2023-03-19T14:08:59;6.28;;;3.55;;
17494;SDS011;8864;51.970;4.614;2023-03-19T14:11:28;6.05;;;3.38;;
17494;SDS011;8864;51.970;4.614;2023-03-19T14:13:59;7.35;;;3.30;;
17494;SDS011;8864;51.970;4.614;2023-03-19T14:16:30;7.35;;;3.67;;
17494;SDS011;8864;51.970;4.614;2023-03-19T14:19:01;6.13;;;3.00;;
17494;SDS011;8864;51.970;4.614;2023-03-19T14:21:34;6.55;;;3.50;;
17494;SDS011;8864;51.970;4.614;2023-03-19T14:26:56;6.82;;;3.30;;
17494;SDS011;8864;51.970;4.614;2023-03-19T14:29:27;5.45;;;3.22;;
17494;SDS011;8864;51.970;4.614;2023-03-19T14:31:58;7.47;;;3.65;;
17494;SDS011;8864;51.970;4.614;2023-03-19T14:34:31;7.28;;;3.45;;
17494;SDS011;8864;51.970;4.614;2023-03-19T14:37:02;5.82;;;2.97;;
17494;SDS011;8864;51.970;4.614;2023-03-19T14:39:37;5.57;;;2.92;;
17494;SDS011;8864;51.970;4.614;2023-03-19T14:42:06;8.63;;;3.63;;
17494;SDS011;8864;51.970;4.614;2023-03-19T14:44:48;7.32;;;3.20;;
17494;SDS011;8864;51.970;4.614;2023-03-19T14:47:49;4.35;;;2.97;;
17494;SDS011;8864;51.970;4.614;2023-03-19T14:50:46;5.57;;;2.92;;
17494;SDS011;8864;51.970;4.614;2023-03-19T14:53:34;8.30;;;3.63;;
17494;SDS011;8864;51.970;4.614;2023-03-19T14:56:09;10.07;;;3.65;;
17494;SDS011;8864;51.970;4.614;2023-03-19T14:58:46;5.35;;;3.28;;
17494;SDS011;8864;51.970;4.614;2023-03-19T15:01:17;7.25;;;3.40;;
17494;SDS011;8864;51.970;4.614;2023-03-19T15:03:50;7.57;;;3.55;;
17494;SDS011;8864;51.970;4.614;2023-03-19T15:06:19;8.18;;;3.67;;
17494;SDS011;8864;51.970;4.614;2023-03-19T15:08:48;6.50;;;3.55;;
17494;SDS011;8864;51.970;4.614;2023-03-19T15:11:20;7.53;;;3.90;;
17494;SDS011;8864;51.970;4.614;2023-03-19T15:14:03;7.35;;;3.45;;
17494;SDS011;8864;51.970;4.614;2023-03-19T15:16:39;4.95;;;2.92;;
17494;SDS011;8864;51.970;4.614;2023-03-19T15:19:13;7.00;;;3.63;;
17494;SDS011;8864;51.970;4.614;2023-03-19T15:21:47;7.05;;;3.20;;
17494;SDS011;8864;51.970;4.614;2023-03-19T15:24:16;7.97;;;3.83;;
17494;SDS011;8864;51.970;4.614;2023-03-19T15:26:43;6.05;;;2.97;;
17494;SDS011;8864;51.970;4.614;2023-03-19T15:29:11;8.05;;;3.42;;
17494;SDS011;8864;51.970;4.614;2023-03-19T15:31:39;6.78;;;3.03;;
17494;SDS011;8864;51.970;4.614;2023-03-19T15:34:18;7.15;;;3.22;;